Time;durP1;ratioP1;P1;durP2;ratioP2;P2;SDS_P1;SDS_P2;PMS_P1;PMS_P2;Temp;Humidity;BMP_temperature;BMP_pressure;BME280_temperature;BME280_humidity;BME280_pressure;Samples;Min_cycle;Max_cycle;Signal;HPM_P1;HPM_P2
2023/03/19 00:00:24;;;;;;;1.53;1.20;;;;;8.70;95711.00;;;;5053420;28;20222;-59
2023/03/19 00:02:51;;;;;;;1.20;1.10;;;;;8.60;95701.00;;;;5053409;28;20192;-60
2023/03/19 00:05:19;;;;;;;0.90;0.90;;;;;8.70;95710.00;;;;5053113;28;20203;-59
2023/03/19 00:07:46;;;;;;;1.00;1.00;;;;;8.80;95715.00;;;;5053125;28;20199;-60
2023/03/19 00:10:17;;;;;;;1.73;1.63;;;;;8.50;95710.00;;;;5053322;28;20188;-60
2023/03/19 00:12:44;;;;;;;0.70;0.70;;;;;8.50;95702.00;;;;5053284;28;20279;-60
2023/03/19 00:15:13;;;;;;;1.20;1.10;;;;;8.50;95698.00;;;;5053321;28;20246;-60
2023/03/19 00:17:40;;;;;;;1.40;1.27;;;;;8.60;95710.00;;;;5053201;28;20192;-60
2023/03/19 00:20:09;;;;;;;0.80;0.80;;;;;8.60;95710.00;;;;5053154;28;20220;-60
2023/03/19 00:22:37;;;;;;;1.10;0.83;;;;;8.60;95708.00;;;;5052937;28;20196;-61
2023/03/19 00:25:05;;;;;;;0.70;0.70;;;;;8.60;95703.00;;;;5051705;28;20644;-60
2023/03/19 00:27:35;;;;;;;0.87;0.87;;;;;8.60;95702.00;;;;5053037;28;20722;-61
2023/03/19 00:30:03;;;;;;;1.03;1.00;;;;;8.70;95708.00;;;;5053201;28;20192;-60
2023/03/19 00:32:32;;;;;;;1.07;1.03;;;;;8.60;95710.00;;;;5052901;28;20241;-60
2023/03/19 00:34:59;;;;;;;1.20;1.10;;;;;8.70;95716.00;;;;5052921;28;20554;-60
2023/03/19 00:37:27;;;;;;;1.30;1.30;;;;;8.70;95724.00;;;;5052775;28;20246;-60
2023/03/19 00:39:54;;;;;;;1.90;1.80;;;;;8.50;95720.00;;;;5052611;28;20560;-60
2023/03/19 00:42:22;;;;;;;1.10;1.10;;;;;8.50;95741.00;;;;5052764;28;20193;-60
2023/03/19 00:44:51;;;;;;;0.70;0.70;;;;;8.30;95749.00;;;;5053008;28;20534;-60
2023/03/19 00:47:19;;;;;;;0.77;0.77;;;;;8.10;95741.00;;;;5052733;28;20207;-60
2023/03/19 00:49:46;;;;;;;1.03;1.03;;;;;8.10;95744.00;;;;5051394;28;20329;-60
2023/03/19 00:52:14;;;;;;;0.90;0.90;;;;;8.30;95754.00;;;;5053227;28;20230;-60
2023/03/19 00:54:41;;;;;;;1.13;1.03;;;;;8.50;95756.00;;;;5052734;28;20279;-60
2023/03/19 00:57:09;;;;;;;2.47;1.30;;;;;8.60;95768.00;;;;5052900;28;20531;-60
2023/03/19 00:59:36;;;;;;;0.70;0.70;;;;;8.70;95760.00;;;;5055437;28;20228;-62
2023/03/19 01:02:05;;;;;;;0.63;0.63;;;;;8.70;95788.00;;;;5056355;28;20220;-60
2023/03/19 01:04:33;;;;;;;0.80;0.80;;;;;8.80;95783.00;;;;5056657;28;20192;-60
2023/03/19 01:07:00;;;;;;;2.10;1.77;;;;;8.70;95779.00;;;;5056574;28;20200;-60
2023/03/19 01:09:28;;;;;;;1.23;1.23;;;;;8.80;95794.00;;;;5056189;28;20756;-61
2023/03/19 01:11:55;;;;;;;1.13;1.13;;;;;8.80;95786.00;;;;5056512;28;20242;-61
2023/03/19 01:14:23;;;;;;;0.70;0.70;;;;;8.80;95770.00;;;;5056177;28;20203;-60
2023/03/19 01:16:50;;;;;;;3.33;1.40;;;;;8.80;95775.00;;;;5056190;28;20192;-60
2023/03/19 01:19:19;;;;;;;0.80;0.80;;;;;8.80;95769.00;;;;5056024;28;20261;-61
2023/03/19 01:21:48;;;;;;;0.80;0.80;;;;;8.60;95759.00;;;;5056444;28;20318;-60
2023/03/19 01:24:16;;;;;;;1.17;1.17;;;;;8.40;95767.00;;;;5054729;28;20250;-60
2023/03/19 01:26:43;;;;;;;0.70;0.70;;;;;8.40;95759.00;;;;5054801;28;20238;-60
2023/03/19 01:29:11;;;;;;;1.50;1.40;;;;;8.50;95759.00;;;;5055793;28;20215;-60
2023/03/19 01:31:38;;;;;;;1.10;1.10;;;;;8.50;95760.00;;;;5055873;28;20193;-60
2023/03/19 01:34:06;;;;;;;1.80;1.73;;;;;8.50;95775.00;;;;5055818;28;20196;-60
2023/03/19 01:36:35;;;;;;;0.90;0.90;;;;;8.60;95765.00;;;;5054470;28;20196;-60
2023/03/19 01:39:03;;;;;;;0.87;0.87;;;;;8.70;95765.00;;;;5054381;28;20242;-60
2023/03/19 01:41:30;;;;;;;0.87;0.87;;;;;8.80;95763.00;;;;5055847;28;20220;-60
2023/03/19 01:43:58;;;;;;;1.23;1.23;;;;;8.70;95762.00;;;;5055548;28;20742;-59
2023/03/19 01:46:30;;;;;;;0.73;0.73;;;;;8.50;95771.00;;;;5055577;28;20199;-59
2023/03/19 01:49:00;;;;;;;1.17;1.17;;;;;8.40;95779.00;;;;5054380;28;20220;-59
2023/03/19 01:51:32;;;;;;;0.80;0.80;;;;;8.30;95774.00;;;;5055700;28;20181;-59
2023/03/19 01:54:03;;;;;;;1.27;1.27;;;;;8.30;95774.00;;;;5055504;28;20227;-59
2023/03/19 01:56:33;;;;;;;1.10;1.10;;;;;8.20;95771.00;;;;5055604;28;20188;-59
2023/03/19 01:59:06;;;;;;;1.40;1.37;;;;;8.30;95778.00;;;;5055164;28;20219;-59
2023/03/19 02:01:38;;;;;;;1.00;1.00;;;;;8.20;95781.00;;;;5055451;28;20204;-59
2023/03/19 02:04:06;;;;;;;1.20;1.13;;;;;8.20;95778.00;;;;5055544;28;20591;-60
2023/03/19 02:06:34;;;;;;;0.97;0.97;;;;;8.20;95771.00;;;;5055227;28;20200;-60
2023/03/19 02:09:04;;;;;;;0.90;0.90;;;;;8.20;95776.00;;;;5054601;28;20699;-60
2023/03/19 02:11:32;;;;;;;0.97;0.97;;;;;8.10;95774.00;;;;5055053;28;20212;-60
2023/03/19 02:13:59;;;;;;;0.90;0.90;;;;;8.20;95775.00;;;;5055453;28;20302;-60
2023/03/19 02:16:27;;;;;;;1.50;1.40;;;;;7.70;95781.00;;;;5055073;28;20228;-60
2023/03/19 02:18:54;;;;;;;0.80;0.80;;;;;7.70;95781.00;;;;5055202;28;20333;-60
2023/03/19 02:21:22;;;;;;;0.83;0.83;;;;;7.60;95785.00;;;;5054939;28;20216;-59
2023/03/19 02:23:55;;;;;;;1.77;1.67;;;;;7.40;95775.00;;;;5054923;28;20207;-60
2023/03/19 02:26:27;;;;;;;1.77;1.67;;;;;7.40;95783.00;;;;5055311;28;20195;-60
2023/03/19 02:28:55;;;;;;;0.70;0.70;;;;;7.60;95772.00;;;;5054791;28;20633;-60
2023/03/19 02:31:23;;;;;;;0.67;0.67;;;;;7.80;95768.00;;;;5054684;28;20199;-59
2023/03/19 02:33:59;;;;;;;1.37;1.27;;;;;7.90;95774.00;;;;5054707;28;20203;-59
2023/03/19 02:36:30;;;;;;;1.33;1.23;;;;;8.00;95763.00;;;;5055132;28;20192;-60
2023/03/19 02:39:00;;;;;;;0.83;0.83;;;;;8.00;95760.00;;;;5054637;28;20757;-60
2023/03/19 02:41:31;;;;;;;1.53;1.43;;;;;8.00;95760.00;;;;5054514;28;20204;-59
2023/03/19 02:44:00;;;;;;;0.80;0.80;;;;;8.00;95743.00;;;;5054532;28;20181;-60
2023/03/19 02:46:27;;;;;;;1.23;1.23;;;;;8.00;95762.00;;;;5054656;28;20203;-59
2023/03/19 02:48:55;;;;;;;1.43;1.33;;;;;7.90;95757.00;;;;5054394;28;20212;-60
2023/03/19 02:51:22;;;;;;;1.00;1.00;;;;;7.80;95762.00;;;;5055041;28;20188;-59
2023/03/19 02:53:50;;;;;;;0.90;0.90;;;;;7.70;95766.00;;;;5053619;28;20208;-60
2023/03/19 02:56:17;;;;;;;0.97;0.97;;;;;7.70;95769.00;;;;5054193;28;20208;-60
2023/03/19 02:58:46;;;;;;;1.13;1.10;;;;;7.80;95766.00;;;;5054362;28;20215;-59
2023/03/19 03:01:14;;;;;;;1.43;1.33;;;;;7.80;95764.00;;;;5054049;28;20220;-60
2023/03/19 03:03:41;;;;;;;1.33;1.23;;;;;7.80;95765.00;;;;5054443;28;20203;-60
2023/03/19 03:06:09;;;;;;;0.83;0.83;;;;;7.80;95777.00;;;;5054291;28;20195;-59
2023/03/19 03:08:36;;;;;;;1.90;1.80;;;;;7.80;95775.00;;;;5054224;28;20615;-60
2023/03/19 03:11:04;;;;;;;0.70;0.70;;;;;7.80;95767.00;;;;5054016;28;20189;-59
2023/03/19 03:13:32;;;;;;;1.00;1.00;;;;;7.80;95778.00;;;;5053935;28;20196;-60
2023/03/19 03:16:00;;;;;;;0.87;0.87;;;;;7.80;95774.00;;;;5052566;28;20204;-60
2023/03/19 03:18:28;;;;;;;1.10;1.10;;;;;7.90;95772.00;;;;5053742;28;20222;-60
2023/03/19 03:20:56;;;;;;;0.60;0.60;;;;;7.90;95775.00;;;;5052922;28;20276;-60
2023/03/19 03:23:23;;;;;;;1.63;1.40;;;;;7.90;95774.00;;;;5054626;28;20196;-60
2023/03/19 03:25:51;;;;;;;1.47;1.37;;;;;7.80;95781.00;;;;5054374;28;20200;-60
2023/03/19 03:28:19;;;;;;;0.80;0.80;;;;;7.90;95783.00;;;;5053752;28;20211;-60
2023/03/19 03:30:47;;;;;;;0.80;0.80;;;;;7.90;95786.00;;;;5053861;28;20210;-59
2023/03/19 03:33:16;;;;;;;1.80;1.10;;;;;7.90;95781.00;;;;5054368;28;20196;-60
2023/03/19 03:35:44;;;;;;;1.60;1.50;;;;;7.80;95787.00;;;;5053749;28;20192;-59
2023/03/19 03:38:11;;;;;;;1.10;1.10;;;;;7.90;95786.00;;;;5053263;28;20211;-60
2023/03/19 03:40:40;;;;;;;1.10;1.00;;;;;7.90;95789.00;;;;5052086;28;20199;-61
2023/03/19 03:43:08;;;;;;;0.77;0.77;;;;;7.80;95776.00;;;;5053318;28;20220;-60
2023/03/19 03:45:36;;;;;;;1.00;1.00;;;;;7.80;95795.00;;;;5053582;28;20277;-59
2023/03/19 03:48:04;;;;;;;0.97;0.97;;;;;7.80;95796.00;;;;5053509;28;20219;-59
2023/03/19 03:50:33;;;;;;;1.10;1.10;;;;;7.50;95786.00;;;;5053249;28;20195;-59
2023/03/19 03:53:01;;;;;;;1.40;1.40;;;;;7.50;95794.00;;;;5053498;28;20537;-59
2023/03/19 03:55:28;;;;;;;1.03;1.00;;;;;7.60;95791.00;;;;5053462;28;20290;-59
2023/03/19 03:57:56;;;;;;;1.00;1.00;;;;;7.50;95804.00;;;;5053551;28;20721;-60
2023/03/19 04:00:24;;;;;;;1.17;1.00;;;;;7.40;95804.00;;;;5053407;28;20249;-59
2023/03/19 04:02:51;;;;;;;1.37;1.30;;;;;7.50;95809.00;;;;5053041;28;20235;-60
2023/03/19 04:05:19;;;;;;;1.97;1.83;;;;;7.60;95801.00;;;;5051982;28;20279;-60
2023/03/19 04:07:48;;;;;;;1.00;1.00;;;;;7.60;95794.00;;;;5053000;28;20192;-60
2023/03/19 04:10:15;;;;;;;0.93;0.93;;;;;7.60;95810.00;;;;5053605;28;20247;-60
2023/03/19 04:12:44;;;;;;;1.03;1.03;;;;;7.60;95824.00;;;;5051785;28;20196;-59
2023/03/19 04:15:12;;;;;;;1.37;1.27;;;;;7.70;95809.00;;;;5053475;28;20195;-60
2023/03/19 04:17:40;;;;;;;0.60;0.60;;;;;7.70;95811.00;;;;5052894;28;20200;-60
2023/03/19 04:20:09;;;;;;;0.90;0.90;;;;;7.70;95811.00;;;;5052948;28;20192;-60
2023/03/19 04:22:37;;;;;;;1.57;1.10;;;;;7.60;95802.00;;;;5052777;28;20302;-60
2023/03/19 04:25:07;;;;;;;0.60;0.60;;;;;7.70;95807.00;;;;5052933;28;20283;-60
2023/03/19 04:27:38;;;;;;;1.40;1.30;;;;;7.70;95817.00;;;;5052896;28;20184;-60
2023/03/19 04:30:06;;;;;;;0.70;0.70;;;;;7.80;95811.00;;;;5053151;28;20196;-60
2023/03/19 04:32:34;;;;;;;0.77;0.77;;;;;7.80;95807.00;;;;5054030;28;20188;-59
2023/03/19 04:35:02;;;;;;;1.03;1.03;;;;;7.80;95809.00;;;;5057091;28;20219;-60
2023/03/19 04:37:29;;;;;;;0.70;0.70;;;;;7.70;95804.00;;;;5056780;28;20196;-59
2023/03/19 04:39:57;;;;;;;0.73;0.73;;;;;7.60;95810.00;;;;5057035;28;20577;-60
2023/03/19 04:42:25;;;;;;;0.60;0.60;;;;;7.60;95817.00;;;;5056927;28;20216;-60
2023/03/19 04:44:53;;;;;;;1.10;1.10;;;;;7.50;95808.00;;;;5056896;28;20724;-59
2023/03/19 04:47:20;;;;;;;0.80;0.80;;;;;7.50;95809.00;;;;5056664;28;20292;-59
2023/03/19 04:49:48;;;;;;;0.60;0.60;;;;;7.50;95811.00;;;;5055276;28;20679;-59
2023/03/19 04:52:15;;;;;;;1.00;1.00;;;;;7.60;95813.00;;;;5056679;28;20199;-59
2023/03/19 04:54:42;;;;;;;0.60;0.60;;;;;7.60;95810.00;;;;5056765;28;20210;-60
2023/03/19 04:57:10;;;;;;;0.70;0.70;;;;;7.60;95817.00;;;;5056556;28;20192;-60
2023/03/19 04:59:39;;;;;;;0.70;0.70;;;;;7.60;95826.00;;;;5056336;28;20273;-60
2023/03/19 05:02:07;;;;;;;0.97;0.90;;;;;7.60;95819.00;;;;5056520;28;20291;-59
2023/03/19 05:04:34;;;;;;;0.80;0.80;;;;;7.70;95835.00;;;;5056824;28;20223;-60
2023/03/19 05:07:02;;;;;;;1.60;1.50;;;;;7.70;95825.00;;;;5056828;28;20199;-59
2023/03/19 05:09:30;;;;;;;1.20;1.20;;;;;7.70;95829.00;;;;5056491;28;20610;-59
2023/03/19 05:11:58;;;;;;;0.90;0.90;;;;;7.70;95827.00;;;;5056197;28;20558;-59
2023/03/19 05:14:26;;;;;;;0.90;0.90;;;;;7.70;95829.00;;;;5056696;28;20275;-60
2023/03/19 05:16:55;;;;;;;0.83;0.83;;;;;7.60;95821.00;;;;5056918;28;20235;-59
2023/03/19 05:19:24;;;;;;;0.70;0.70;;;;;7.70;95824.00;;;;5056177;28;20226;-59
2023/03/19 05:21:51;;;;;;;0.73;0.73;;;;;7.70;95823.00;;;;5055932;28;20298;-60
2023/03/19 05:24:18;;;;;;;1.20;1.20;;;;;7.80;95836.00;;;;5056427;28;20484;-60
2023/03/19 05:26:46;;;;;;;1.00;1.00;;;;;7.70;95832.00;;;;5056098;28;20539;-60
2023/03/19 05:29:13;;;;;;;0.70;0.70;;;;;7.60;95832.00;;;;5055986;28;20227;-59
2023/03/19 05:31:41;;;;;;;1.07;1.07;;;;;7.60;95831.00;;;;5056026;28;20568;-60
2023/03/19 05:34:09;;;;;;;0.97;0.97;;;;;7.60;95835.00;;;;5054489;28;20199;-59
2023/03/19 05:36:37;;;;;;;1.27;1.20;;;;;7.60;95823.00;;;;5055727;28;20200;-60
2023/03/19 05:39:04;;;;;;;1.80;1.23;;;;;7.60;95841.00;;;;5055580;28;20644;-59
2023/03/19 05:41:32;;;;;;;0.70;0.70;;;;;7.70;95839.00;;;;5055514;28;20274;-59
2023/03/19 05:43:59;;;;;;;0.70;0.70;;;;;7.80;95837.00;;;;5054719;28;20200;-59
2023/03/19 05:46:27;;;;;;;0.90;0.90;;;;;7.80;95846.00;;;;5055554;28;20601;-60
2023/03/19 05:48:54;;;;;;;0.80;0.80;;;;;7.90;95845.00;;;;5055384;28;20301;-59
2023/03/19 05:51:23;;;;;;;0.70;0.70;;;;;7.90;95845.00;;;;5055656;28;20198;-60
2023/03/19 05:53:50;;;;;;;1.13;1.13;;;;;7.90;95845.00;;;;5055637;28;20192;-60
2023/03/19 05:56:18;;;;;;;0.70;0.70;;;;;7.90;95851.00;;;;5055379;28;20203;-60
2023/03/19 05:58:45;;;;;;;0.80;0.80;;;;;7.90;95854.00;;;;5055078;28;20222;-59
2023/03/19 06:01:13;;;;;;;0.93;0.93;;;;;7.90;95853.00;;;;5053974;28;20655;-62
2023/03/19 06:03:40;;;;;;;1.03;1.03;;;;;7.80;95861.00;;;;5053819;28;20215;-59
2023/03/19 06:06:08;;;;;;;1.10;1.10;;;;;7.80;95854.00;;;;5055180;28;20234;-60
2023/03/19 06:08:37;;;;;;;1.00;1.00;;;;;7.90;95858.00;;;;5055429;28;20234;-60
2023/03/19 06:11:05;;;;;;;1.10;1.10;;;;;7.90;95852.00;;;;5055060;28;20188;-60
2023/03/19 06:13:33;;;;;;;0.90;0.90;;;;;8.00;95857.00;;;;5055546;28;20238;-60
2023/03/19 06:16:00;;;;;;;0.80;0.80;;;;;8.00;95852.00;;;;5053664;28;20211;-60
2023/03/19 06:18:28;;;;;;;0.60;0.60;;;;;7.90;95863.00;;;;5054926;28;20214;-60
2023/03/19 06:20:55;;;;;;;9.43;2.50;;;;;7.90;95858.00;;;;5053607;28;20192;-59
2023/03/19 06:23:23;;;;;;;2.70;1.10;;;;;8.00;95861.00;;;;5055044;28;20230;-59
2023/03/19 06:25:51;;;;;;;0.63;0.63;;;;;8.00;95853.00;;;;5055063;28;20655;-60
2023/03/19 06:28:19;;;;;;;0.63;0.63;;;;;8.00;95851.00;;;;5054680;28;20220;-60
2023/03/19 06:30:46;;;;;;;0.83;0.83;;;;;8.10;95850.00;;;;5054808;28;20192;-60
2023/03/19 06:33:14;;;;;;;2.00;1.80;;;;;8.10;95845.00;;;;5054736;28;20192;-60
2023/03/19 06:35:41;;;;;;;0.90;0.90;;;;;8.10;95851.00;;;;5054610;28;20185;-60
2023/03/19 06:38:09;;;;;;;1.67;1.27;;;;;8.20;95856.00;;;;5054610;28;20220;-60
2023/03/19 06:40:36;;;;;;;1.33;1.27;;;;;8.10;95851.00;;;;5054774;28;20267;-59
2023/03/19 06:43:06;;;;;;;1.07;1.07;;;;;8.10;95848.00;;;;5054405;28;20262;-59
2023/03/19 06:45:33;;;;;;;1.17;1.10;;;;;8.10;95853.00;;;;5053859;28;20647;-59
2023/03/19 06:48:00;;;;;;;1.20;1.20;;;;;8.20;95856.00;;;;5054328;28;20208;-59
2023/03/19 06:50:28;;;;;;;1.60;1.50;;;;;8.10;95852.00;;;;5054809;28;20223;-59
2023/03/19 06:52:55;;;;;;;1.80;1.10;;;;;8.20;95860.00;;;;5054299;28;20192;-59
2023/03/19 06:55:23;;;;;;;0.73;0.73;;;;;8.30;95856.00;;;;5054193;28;20188;-59
2023/03/19 06:57:51;;;;;;;0.87;0.87;;;;;8.40;95852.00;;;;5054064;28;20192;-59
2023/03/19 07:00:20;;;;;;;1.40;1.30;;;;;8.50;95854.00;;;;5054055;28;20275;-60
2023/03/19 07:02:48;;;;;;;1.27;1.17;;;;;8.50;95860.00;;;;5054520;28;20215;-61
2023/03/19 07:05:16;;;;;;;1.00;1.00;;;;;8.60;95866.00;;;;5053999;28;20671;-60
2023/03/19 07:07:43;;;;;;;1.53;1.13;;;;;8.70;95856.00;;;;5054188;28;20184;-61
2023/03/19 07:10:11;;;;;;;1.23;1.17;;;;;8.90;95862.00;;;;5054456;28;20203;-60
2023/03/19 07:12:39;;;;;;;0.87;0.87;;;;;9.00;95858.00;;;;5053903;28;20191;-60
2023/03/19 07:15:07;;;;;;;1.00;1.00;;;;;9.20;95868.00;;;;5052658;28;20282;-60
2023/03/19 07:17:36;;;;;;;0.87;0.87;;;;;9.20;95868.00;;;;5053875;28;20655;-60
2023/03/19 07:20:05;;;;;;;0.87;0.87;;;;;9.30;95865.00;;;;5053834;28;20184;-60
2023/03/19 07:22:32;;;;;;;0.70;0.70;;;;;9.30;95873.00;;;;5053987;28;20618;-60
2023/03/19 07:25:00;;;;;;;3.43;1.33;;;;;9.50;95869.00;;;;5054184;28;20196;-60
2023/03/19 07:27:27;;;;;;;1.03;1.03;;;;;9.60;95868.00;;;;5053897;28;20607;-60
2023/03/19 07:29:55;;;;;;;3.63;1.80;;;;;9.70;95870.00;;;;5053530;28;20230;-60
2023/03/19 07:32:23;;;;;;;0.90;0.90;;;;;9.70;95872.00;;;;5052276;28;20216;-60
2023/03/19 07:34:51;;;;;;;2.53;1.43;;;;;9.90;95872.00;;;;5053717;28;20224;-60
2023/03/19 07:37:19;;;;;;;0.90;0.90;;;;;9.90;95874.00;;;;5053462;28;20192;-60
2023/03/19 07:39:46;;;;;;;0.60;0.60;;;;;10.00;95873.00;;;;5053471;28;20223;-60
2023/03/19 07:42:14;;;;;;;0.70;0.70;;;;;10.00;95872.00;;;;5052238;28;20204;-60
2023/03/19 07:44:41;;;;;;;1.20;1.10;;;;;10.00;95868.00;;;;5053501;28;20207;-60
2023/03/19 07:47:09;;;;;;;0.90;0.90;;;;;10.00;95869.00;;;;5053276;28;20188;-60
2023/03/19 07:49:37;;;;;;;0.83;0.83;;;;;10.10;95870.00;;;;5053693;28;20287;-60
2023/03/19 07:52:06;;;;;;;0.60;0.60;;;;;9.90;95873.00;;;;5053764;28;20192;-61
2023/03/19 07:54:34;;;;;;;1.27;1.27;;;;;9.90;95876.00;;;;5053347;28;20188;-60
2023/03/19 07:57:01;;;;;;;0.83;0.83;;;;;9.80;95878.00;;;;5053376;28;20658;-60
2023/03/19 07:59:29;;;;;;;0.80;0.80;;;;;9.70;95878.00;;;;5053194;28;20219;-60
2023/03/19 08:01:57;;;;;;;1.27;1.27;;;;;9.90;95884.00;;;;5053497;28;20208;-60
2023/03/19 08:04:24;;;;;;;1.50;1.40;;;;;10.10;95880.00;;;;5053248;28;20220;-61
2023/03/19 08:06:52;;;;;;;0.80;0.80;;;;;10.30;95880.00;;;;5052763;28;20184;-60
2023/03/19 08:09:21;;;;;;;1.37;1.37;;;;;10.40;95884.00;;;;5053040;28;20281;-60
2023/03/19 08:11:48;;;;;;;1.83;1.73;;;;;10.50;95876.00;;;;5052872;28;20192;-61
2023/03/19 08:14:18;;;;;;;1.17;1.17;;;;;10.90;95875.00;;;;5053240;28;20551;-62
2023/03/19 08:16:45;;;;;;;0.83;0.83;;;;;11.00;95875.00;;;;5053167;28;20187;-62
2023/03/19 08:19:13;;;;;;;0.70;0.70;;;;;11.10;95882.00;;;;5053324;28;20592;-62
2023/03/19 08:21:40;;;;;;;0.60;0.60;;;;;11.30;95874.00;;;;5052891;28;20223;-61
2023/03/19 08:24:08;;;;;;;0.70;0.70;;;;;11.30;95874.00;;;;5052758;28;20228;-62
2023/03/19 08:26:37;;;;;;;0.90;0.90;;;;;11.40;95878.00;;;;5053091;28;20523;-61
2023/03/19 08:29:05;;;;;;;0.97;0.97;;;;;11.30;95875.00;;;;5053035;28;20208;-61
2023/03/19 08:31:33;;;;;;;1.00;1.00;;;;;11.30;95877.00;;;;5053028;28;20291;-61
2023/03/19 08:34:02;;;;;;;1.00;0.97;;;;;11.40;95868.00;;;;5052823;28;20195;-61
2023/03/19 08:36:30;;;;;;;0.53;0.53;;;;;11.50;95871.00;;;;5052815;28;20279;-61
2023/03/19 08:38:57;;;;;;;1.20;1.20;;;;;11.70;95880.00;;;;5052649;28;20227;-61
2023/03/19 08:41:25;;;;;;;0.77;0.77;;;;;11.90;95876.00;;;;5053028;28;20559;-61
2023/03/19 08:43:54;;;;;;;3.80;1.93;;;;;12.00;95870.00;;;;5052688;28;20212;-61
2023/03/19 08:46:22;;;;;;;0.93;0.93;;;;;11.90;95879.00;;;;5052791;28;20192;-61
2023/03/19 08:48:49;;;;;;;0.83;0.83;;;;;12.20;95879.00;;;;5051326;28;20717;-62
2023/03/19 08:51:16;;;;;;;1.33;1.20;;;;;12.50;95876.00;;;;5052701;28;20192;-61
2023/03/19 08:53:44;;;;;;;0.80;0.80;;;;;12.40;95879.00;;;;5052576;28;20644;-61
2023/03/19 08:56:11;;;;;;;0.60;0.60;;;;;12.40;95889.00;;;;5052613;28;20196;-60
2023/03/19 08:58:40;;;;;;;0.90;0.90;;;;;12.30;95882.00;;;;5052314;28;20595;-60
2023/03/19 09:01:11;;;;;;;0.97;0.97;;;;;12.50;95880.00;;;;5052806;28;20273;-60
2023/03/19 09:03:40;;;;;;;1.17;0.90;;;;;12.60;95877.00;;;;5052805;28;20235;-62
2023/03/19 09:06:10;;;;;;;0.70;0.70;;;;;12.40;95868.00;;;;5052517;28;20196;-62
2023/03/19 09:08:38;;;;;;;1.53;1.50;;;;;12.60;95878.00;;;;5052681;28;20208;-62
2023/03/19 09:11:06;;;;;;;0.90;0.90;;;;;12.70;95881.00;;;;5051175;28;20198;-62
2023/03/19 09:13:34;;;;;;;0.87;0.87;;;;;13.00;95885.00;;;;5052373;28;20193;-62
2023/03/19 09:16:01;;;;;;;1.50;1.43;;;;;12.90;95883.00;;;;5052470;28;20196;-61
2023/03/19 09:18:31;;;;;;;0.80;0.80;;;;;13.10;95883.00;;;;5051058;28;20581;-61
2023/03/19 09:20:58;;;;;;;0.67;0.67;;;;;13.10;95886.00;;;;5056109;28;20227;-61
2023/03/19 09:23:26;;;;;;;1.00;1.00;;;;;13.30;95886.00;;;;5055979;28;20230;-59
2023/03/19 09:25:54;;;;;;;0.93;0.93;;;;;13.30;95880.00;;;;5056470;28;20189;-59
2023/03/19 09:28:22;;;;;;;0.60;0.60;;;;;13.70;95886.00;;;;5055861;28;20265;-61
2023/03/19 09:30:50;;;;;;;0.60;0.60;;;;;13.70;95884.00;;;;5056287;28;20207;-61
2023/03/19 09:33:19;;;;;;;0.77;0.77;;;;;13.30;95883.00;;;;5055782;28;20192;-61
2023/03/19 09:35:52;;;;;;;1.00;1.00;;;;;13.40;95884.00;;;;5055765;28;20196;-62
2023/03/19 09:38:20;;;;;;;0.80;0.80;;;;;13.60;95876.00;;;;5055918;28;20635;-61
2023/03/19 09:40:52;;;;;;;0.90;0.90;;;;;13.50;95880.00;;;;5055995;28;20218;-61
2023/03/19 09:43:38;;;;;;;1.10;1.10;;;;;13.10;95871.00;;;;5055115;28;20200;-60
2023/03/19 09:46:13;;;;;;;0.63;0.63;;;;;13.60;95876.00;;;;5056383;28;20176;-61
2023/03/19 09:48:47;;;;;;;0.70;0.70;;;;;13.50;95880.00;;;;5055657;28;20219;-61
2023/03/19 09:51:26;;;;;;;0.60;0.60;;;;;13.70;95874.00;;;;5055535;28;20192;-61
2023/03/19 09:53:58;;;;;;;0.80;0.80;;;;;13.50;95858.00;;;;5055936;28;20219;-61
2023/03/19 09:56:26;;;;;;;0.70;0.70;;;;;13.60;95860.00;;;;5055443;28;20191;-60
2023/03/19 09:58:54;;;;;;;0.50;0.50;;;;;14.00;95865.00;;;;5055338;28;20227;-60
2023/03/19 10:01:26;;;;;;;0.63;0.63;;;;;14.10;95853.00;;;;5055612;28;20222;-60
2023/03/19 10:04:19;;;;;;;1.03;1.03;;;;;14.30;95858.00;;;;5054008;28;20244;-61
2023/03/19 10:06:48;;;;;;;0.63;0.63;;;;;14.10;95858.00;;;;5055541;28;20196;-60
2023/03/19 10:09:30;;;;;;;0.60;0.60;;;;;14.00;95865.00;;;;5055145;28;20212;-59
2023/03/19 10:12:16;;;;;;;0.80;0.80;;;;;14.20;95867.00;;;;5055414;28;20659;-59
2023/03/19 10:15:10;;;;;;;0.60;0.60;;;;;14.70;95861.00;;;;5055098;28;20195;-59
2023/03/19 10:17:42;;;;;;;0.70;0.70;;;;;14.70;95859.00;;;;5055301;28;20204;-60
2023/03/19 10:20:16;;;;;;;0.90;0.90;;;;;14.60;95861.00;;;;5055202;28;20184;-60
2023/03/19 10:22:48;;;;;;;0.90;0.90;;;;;15.10;95855.00;;;;5053872;28;20684;-60
2023/03/19 10:25:21;;;;;;;0.93;0.93;;;;;14.80;95864.00;;;;5055432;28;20197;-60
2023/03/19 10:27:55;;;;;;;0.60;0.60;;;;;15.10;95864.00;;;;5055098;28;20231;-60
2023/03/19 10:30:23;;;;;;;0.53;0.53;;;;;15.00;95860.00;;;;5055022;28;20180;-60
2023/03/19 10:32:59;;;;;;;1.00;1.00;;;;;15.20;95851.00;;;;5068025;22;20200;-68
2023/03/19 10:35:37;;;;;;;0.80;0.80;;;;;15.40;95866.00;;;;5015622;28;20181;-69
2023/03/19 10:38:19;;;;;;;1.70;1.37;;;;;15.00;95863.00;;;;5015120;28;20285;-70
2023/03/19 10:41:00;;;;;;;0.60;0.60;;;;;14.80;95856.00;;;;5014833;28;20232;-70
2023/03/19 10:43:29;;;;;;;1.53;1.43;;;;;15.00;95837.00;;;;5014649;28;20271;-70
2023/03/19 10:45:58;;;;;;;0.50;0.50;;;;;15.30;95846.00;;;;5014652;28;20197;-70
2023/03/19 10:48:28;;;;;;;0.70;0.70;;;;;15.20;95849.00;;;;5014605;28;20193;-70
2023/03/19 10:50:59;;;;;;;0.63;0.63;;;;;15.10;95856.00;;;;5014546;28;20285;-70
2023/03/19 10:53:34;;;;;;;1.23;1.13;;;;;15.00;95844.00;;;;5014618;28;20213;-70
2023/03/19 10:56:04;;;;;;;1.10;1.10;;;;;14.80;95853.00;;;;5015155;28;20260;-70
2023/03/19 10:58:34;;;;;;;0.40;0.40;;;;;14.90;95852.00;;;;5014684;28;20678;-70
2023/03/19 11:01:06;;;;;;;0.97;0.60;;;;;15.30;95832.00;;;;5014435;28;20193;-70
2023/03/19 11:03:36;;;;;;;4.23;0.83;;;;;15.40;95847.00;;;;5014413;28;20225;-70
2023/03/19 11:06:06;;;;;;;1.13;1.13;;;;;15.30;95851.00;;;;5014945;28;20197;-70
2023/03/19 11:08:37;;;;;;;2.43;1.13;;;;;14.70;95849.00;;;;5014542;28;20185;-70
2023/03/19 11:11:05;;;;;;;1.33;1.17;;;;;15.00;95848.00;;;;5014314;28;20186;-72
2023/03/19 11:13:35;;;;;;;0.90;0.90;;;;;15.50;95842.00;;;;5014479;28;20619;-69
2023/03/19 11:16:04;;;;;;;0.70;0.70;;;;;15.80;95848.00;;;;5014826;28;20285;-70
2023/03/19 11:18:38;;;;;;;0.67;0.67;;;;;15.60;95850.00;;;;5014432;28;20743;-71
2023/03/19 11:21:08;;;;;;;0.90;0.90;;;;;15.60;95848.00;;;;5014162;28;20181;-70
2023/03/19 11:23:42;;;;;;;0.93;0.93;;;;;15.60;95851.00;;;;5014239;28;20225;-70
2023/03/19 11:26:09;;;;;;;0.57;0.57;;;;;15.50;95856.00;;;;5014281;28;20189;-70
2023/03/19 11:28:38;;;;;;;0.77;0.77;;;;;15.80;95847.00;;;;5014044;28;20201;-70
2023/03/19 11:31:15;;;;;;;0.90;0.90;;;;;15.70;95849.00;;;;5013879;28;20200;-70
2023/03/19 11:34:01;;;;;;;0.77;0.77;;;;;14.80;95852.00;;;;5013726;28;20244;-70
2023/03/19 11:36:33;;;;;;;0.60;0.60;;;;;15.00;95842.00;;;;5014310;28;20238;-70
2023/03/19 11:39:20;;;;;;;0.50;0.50;;;;;14.90;95835.00;;;;5014584;28;20536;-69
2023/03/19 11:42:09;;;;;;;0.80;0.80;;;;;15.30;95839.00;;;;5013717;28;20641;-70
2023/03/19 11:44:47;;;;;;;0.73;0.73;;;;;15.40;95838.00;;;;5013846;28;20261;-69
2023/03/19 11:47:24;;;;;;;0.90;0.90;;;;;15.20;95845.00;;;;5013791;28;20259;-70
2023/03/19 11:50:04;;;;;;;0.60;0.60;;;;;15.10;95839.00;;;;5013870;28;20181;-70
2023/03/19 11:52:40;;;;;;;0.57;0.57;;;;;14.70;95841.00;;;;5013927;28;20341;-69
2023/03/19 11:55:22;;;;;;;0.47;0.47;;;;;14.80;95849.00;;;;5013755;28;20565;-70
2023/03/19 11:58:05;;;;;;;0.83;0.83;;;;;14.80;95851.00;;;;5013466;28;20182;-70
2023/03/19 12:00:39;;;;;;;0.50;0.50;;;;;14.90;95842.00;;;;5013439;28;20192;-69
2023/03/19 12:03:57;;;;;;;0.97;0.97;;;;;14.60;95845.00;;;;5014555;28;20319;-68
2023/03/19 12:06:36;;;;;;;0.80;0.80;;;;;14.50;95842.00;;;;4996379;28;20300;-68
2023/03/19 12:09:09;;;;;;;1.10;1.10;;;;;14.60;95835.00;;;;5013877;28;20195;-69
2023/03/19 12:11:46;;;;;;;0.83;0.83;;;;;14.90;95829.00;;;;5013294;28;20189;-69
2023/03/19 12:14:26;;;;;;;0.50;0.50;;;;;14.80;95827.00;;;;5013327;28;20708;-69
2023/03/19 12:17:07;;;;;;;0.80;0.80;;;;;15.00;95844.00;;;;5012773;28;20178;-69
2023/03/19 12:19:59;;;;;;;0.50;0.50;;;;;15.00;95837.00;;;;5011979;28;20572;-71
2023/03/19 12:22:40;;;;;;;0.50;0.50;;;;;14.70;95850.00;;;;5006229;28;20213;-69
2023/03/19 12:25:26;;;;;;;0.50;0.50;;;;;14.40;95842.00;;;;5013110;28;20205;-71
2023/03/19 12:28:00;;;;;;;0.67;0.67;;;;;14.80;95839.00;;;;5013667;28;20193;-70
2023/03/19 12:30:35;;;;;;;0.57;0.57;;;;;15.10;95838.00;;;;5013318;28;20659;-70
2023/03/19 12:33:22;;;;;;;0.60;0.60;;;;;14.60;95842.00;;;;5013211;28;20271;-70
2023/03/19 12:35:53;;;;;;;0.77;0.77;;;;;14.80;95839.00;;;;5013368;28;20173;-70